createdAt,value
2022-08-20T00:02:10.995Z,20.20
2022-08-20T00:04:41.211Z,20.20
2022-08-20T00:07:09.078Z,20.20
2022-08-20T00:09:37.106Z,20.10
2022-08-20T00:12:06.240Z,20.10
2022-08-20T00:14:34.683Z,20.00
2022-08-20T00:17:02.663Z,20.00
2022-08-20T00:19:30.930Z,20.00
2022-08-20T00:22:00.230Z,19.90
2022-08-20T00:24:28.145Z,19.90
2022-08-20T00:26:56.019Z,19.90
2022-08-20T00:29:23.938Z,19.90
2022-08-20T00:31:51.904Z,19.90
2022-08-20T00:34:20.338Z,19.90
2022-08-20T00:36:48.848Z,19.90
2022-08-20T00:39:18.068Z,19.80
2022-08-20T00:41:46.030Z,19.90
2022-08-20T00:44:16.876Z,19.80
2022-08-20T00:46:48.290Z,19.80
2022-08-20T00:49:22.069Z,19.80
2022-08-20T00:51:55.533Z,19.80
2022-08-20T00:54:31.073Z,19.80
2022-08-20T00:57:03.494Z,19.80
2022-08-20T00:59:35.460Z,19.80
2022-08-20T01:02:04.626Z,19.80
2022-08-20T01:04:35.155Z,19.80
2022-08-20T01:07:05.272Z,19.80
2022-08-20T01:09:57.863Z,19.80
2022-08-20T01:12:25.099Z,19.90
2022-08-20T01:14:53.459Z,19.90
2022-08-20T01:17:24.819Z,19.80
2022-08-20T01:19:58.624Z,19.80
2022-08-20T01:22:51.073Z,19.80
2022-08-20T01:25:26.343Z,19.80
2022-08-20T01:27:57.282Z,19.80
2022-08-20T01:30:29.811Z,19.80
2022-08-20T01:32:57.962Z,19.80
2022-08-20T01:35:27.160Z,19.80
2022-08-20T01:37:55.844Z,19.80
2022-08-20T01:40:37.028Z,19.80
2022-08-20T01:43:08.374Z,19.80
2022-08-20T01:45:40.154Z,19.70
2022-08-20T01:48:08.787Z,19.70
2022-08-20T01:50:42.865Z,19.70
2022-08-20T01:53:21.663Z,19.60
2022-08-20T01:55:49.590Z,19.70
2022-08-20T01:58:18.935Z,19.70
2022-08-20T02:00:47.305Z,19.70
2022-08-20T02:03:15.279Z,19.70
2022-08-20T02:05:43.212Z,19.70
2022-08-20T02:08:11.101Z,19.70
2022-08-20T02:10:39.014Z,19.70
2022-08-20T02:13:09.756Z,19.80
2022-08-20T02:15:39.763Z,19.80
2022-08-20T02:18:14.801Z,19.80
2022-08-20T02:20:44.110Z,19.80
2022-08-20T02:23:13.003Z,19.70
2022-08-20T02:25:43.094Z,19.70
2022-08-20T02:28:13.976Z,19.70
2022-08-20T02:30:46.955Z,19.70
2022-08-20T02:33:17.226Z,19.80
2022-08-20T02:35:48.504Z,19.80
2022-08-20T02:38:17.413Z,19.80
2022-08-20T02:40:46.582Z,19.80
2022-08-20T02:43:15.470Z,19.80
2022-08-20T02:45:44.788Z,19.80
2022-08-20T02:48:20.615Z,19.80
2022-08-20T02:50:53.302Z,19.90
2022-08-20T02:53:21.271Z,19.90
2022-08-20T02:55:49.326Z,19.90
2022-08-20T02:58:17.360Z,19.90
2022-08-20T03:00:46.892Z,19.80
2022-08-20T03:03:15.576Z,19.80
2022-08-20T03:05:45.701Z,19.70
2022-08-20T03:08:15.709Z,19.70
2022-08-20T03:10:46.264Z,19.60
2022-08-20T03:13:15.163Z,19.60
2022-08-20T03:15:46.014Z,19.60
2022-08-20T03:18:16.815Z,19.50
2022-08-20T03:20:46.330Z,19.50
2022-08-20T03:23:21.296Z,19.50
2022-08-20T03:25:50.018Z,19.50
2022-08-20T03:28:18.314Z,19.50
2022-08-20T03:30:46.732Z,19.40
2022-08-20T03:33:16.411Z,19.40
2022-08-20T03:35:44.555Z,19.50
2022-08-20T03:38:14.905Z,19.40
2022-08-20T03:40:43.886Z,19.50
2022-08-20T03:43:12.430Z,19.50
2022-08-20T03:45:42.630Z,19.50
2022-08-20T03:48:12.685Z,19.50
2022-08-20T03:50:42.462Z,19.60
2022-08-20T03:53:13.165Z,19.60
2022-08-20T03:55:45.478Z,19.60
2022-08-20T03:58:34.741Z,19.60
2022-08-20T04:01:05.914Z,19.60
2022-08-20T04:03:34.112Z,19.60
2022-08-20T04:06:03.362Z,19.60
2022-08-20T04:08:31.570Z,19.50
2022-08-20T04:11:00.637Z,19.50
2022-08-20T04:13:30.829Z,19.40
2022-08-20T04:15:58.799Z,19.30
2022-08-20T04:18:27.459Z,19.20
2022-08-20T04:20:55.999Z,19.10
2022-08-20T04:23:25.317Z,19.10
2022-08-20T04:25:54.313Z,19.00
2022-08-20T04:28:28.376Z,18.90
2022-08-20T04:30:57.376Z,18.90
2022-08-20T04:33:35.418Z,18.90
2022-08-20T04:36:06.038Z,18.80
2022-08-20T04:38:49.869Z,18.80
2022-08-20T04:41:22.709Z,18.70
2022-08-20T04:43:53.621Z,18.70
2022-08-20T04:46:23.252Z,18.60
2022-08-20T04:48:51.134Z,18.60
2022-08-20T04:51:22.989Z,18.50
2022-08-20T04:53:54.306Z,18.50
2022-08-20T04:56:24.286Z,18.50
2022-08-20T04:58:53.763Z,18.50
2022-08-20T05:01:23.605Z,18.50
2022-08-20T05:03:53.585Z,18.50
2022-08-20T05:06:23.427Z,18.50
2022-08-20T05:08:53.356Z,18.60
2022-08-20T05:11:33.430Z,18.50
2022-08-20T05:14:05.706Z,18.50
2022-08-20T05:16:38.284Z,18.50
2022-08-20T05:19:07.035Z,18.50
2022-08-20T05:21:35.007Z,18.50
2022-08-20T05:24:04.824Z,18.50
2022-08-20T05:26:33.311Z,18.50
2022-08-20T05:29:02.390Z,18.50
2022-08-20T05:31:33.330Z,18.50
2022-08-20T05:34:02.497Z,18.60
2022-08-20T05:36:30.796Z,18.60
2022-08-20T05:38:59.091Z,18.70
2022-08-20T05:41:30.470Z,18.70
2022-08-20T05:44:01.203Z,18.80
2022-08-20T05:46:29.587Z,18.80
2022-08-20T05:48:59.775Z,18.90
2022-08-20T05:51:28.398Z,19.00
2022-08-20T05:53:59.269Z,19.10
2022-08-20T05:56:30.642Z,19.20
2022-08-20T05:59:00.544Z,19.30
2022-08-20T06:01:28.652Z,19.40
2022-08-20T06:04:13.925Z,19.50
2022-08-20T06:06:45.689Z,19.50
2022-08-20T06:09:15.402Z,19.60
2022-08-20T06:11:44.640Z,19.60
2022-08-20T06:14:12.556Z,19.70
2022-08-20T06:16:50.401Z,19.60
2022-08-20T06:19:26.388Z,19.70
2022-08-20T06:21:56.432Z,19.70
2022-08-20T06:24:24.893Z,19.70
2022-08-20T06:26:58.638Z,19.70
2022-08-20T06:29:27.120Z,19.80
2022-08-20T06:31:56.319Z,19.80
2022-08-20T06:34:28.264Z,19.90
2022-08-20T06:36:56.658Z,20.00
2022-08-20T06:39:26.083Z,20.00
2022-08-20T06:41:55.607Z,20.10
2022-08-20T06:44:24.856Z,20.20
2022-08-20T06:46:52.939Z,20.20
2022-08-20T06:49:20.912Z,20.30
2022-08-20T06:51:52.099Z,20.30
2022-08-20T06:54:20.332Z,20.30
2022-08-20T06:56:56.684Z,20.40
2022-08-20T06:59:25.937Z,20.50
2022-08-20T07:01:56.381Z,20.60
2022-08-20T07:04:24.456Z,20.60
2022-08-20T07:06:52.386Z,20.60
2022-08-20T07:09:20.600Z,20.60
2022-08-20T07:11:49.276Z,20.70
2022-08-20T07:14:18.325Z,20.70
2022-08-20T07:16:48.198Z,20.70
2022-08-20T07:19:16.121Z,20.70
2022-08-20T07:21:44.081Z,20.80
2022-08-20T07:24:12.553Z,20.80
2022-08-20T07:26:40.499Z,20.80
2022-08-20T07:29:08.665Z,20.80
2022-08-20T07:31:54.375Z,20.90
2022-08-20T07:34:23.714Z,20.90
2022-08-20T07:36:51.741Z,20.80
2022-08-20T07:39:20.492Z,20.70
2022-08-20T07:42:02.923Z,20.60
2022-08-20T07:44:31.306Z,20.50
2022-08-20T07:46:59.852Z,20.40
2022-08-20T07:49:29.953Z,20.40
2022-08-20T07:51:57.862Z,20.40
2022-08-20T07:54:25.776Z,20.50
2022-08-20T07:57:02.536Z,20.50
2022-08-20T07:59:31.107Z,20.60
2022-08-20T08:01:59.475Z,20.70
2022-08-20T08:04:28.793Z,20.80
2022-08-20T08:07:00.030Z,20.90
2022-08-20T08:09:29.758Z,21.00
2022-08-20T08:12:00.821Z,21.00
2022-08-20T08:14:35.044Z,21.10
2022-08-20T08:17:07.629Z,21.20
2022-08-20T08:19:41.442Z,21.20
2022-08-20T08:22:12.256Z,21.20
2022-08-20T08:24:41.485Z,21.20
2022-08-20T08:27:24.599Z,21.30
2022-08-20T08:29:52.473Z,21.30
2022-08-20T08:32:20.406Z,21.40
2022-08-20T08:34:49.811Z,21.40
2022-08-20T08:37:17.773Z,21.40
2022-08-20T08:39:45.791Z,21.30
2022-08-20T08:42:26.007Z,21.20
2022-08-20T08:44:54.502Z,21.30
2022-08-20T08:47:27.560Z,21.40
2022-08-20T08:50:06.464Z,21.40
2022-08-20T08:52:37.794Z,21.50
2022-08-20T08:55:08.890Z,21.60
2022-08-20T08:57:47.438Z,21.60
2022-08-20T09:00:21.469Z,21.60
2022-08-20T09:03:01.524Z,21.70
2022-08-20T09:08:17.341Z,21.70
2022-08-20T09:10:56.301Z,21.80
2022-08-20T09:13:25.141Z,21.80
2022-08-20T09:15:58.083Z,21.70
2022-08-20T09:21:32.754Z,21.70
2022-08-20T09:40:52.400Z,21.60
2022-08-20T09:46:33.902Z,21.50
2022-08-20T09:49:05.781Z,21.50
2022-08-20T09:55:03.185Z,21.60
2022-08-20T09:58:32.401Z,21.60
2022-08-20T10:05:06.152Z,21.70
2022-08-20T10:10:52.171Z,21.70
2022-08-20T10:13:22.983Z,21.70
2022-08-20T10:15:53.249Z,21.70
2022-08-20T10:18:24.256Z,21.70
2022-08-20T10:20:53.518Z,21.80
2022-08-20T10:23:32.340Z,21.80
2022-08-20T10:26:04.881Z,21.90
2022-08-20T10:28:32.791Z,21.90
2022-08-20T10:31:00.677Z,21.90
2022-08-20T10:33:28.866Z,21.80
2022-08-20T10:36:00.202Z,21.80
2022-08-20T10:38:28.568Z,21.80
2022-08-20T10:40:56.468Z,21.90
2022-08-20T10:43:24.564Z,22.00
2022-08-20T10:45:53.115Z,22.10
2022-08-20T10:48:21.728Z,22.20
2022-08-20T10:50:53.937Z,22.20
2022-08-20T10:53:28.201Z,22.20
2022-08-20T10:55:58.929Z,22.20
2022-08-20T10:58:29.017Z,22.20
2022-08-20T11:01:08.523Z,22.20
2022-08-20T11:03:39.150Z,22.20
2022-08-20T11:06:07.514Z,22.10
2022-08-20T11:08:37.041Z,22.10
2022-08-20T11:11:08.650Z,22.10
2022-08-20T11:13:37.852Z,22.10
2022-08-20T11:16:07.181Z,22.10
2022-08-20T11:18:36.173Z,22.10
2022-08-20T11:21:04.329Z,22.20
2022-08-20T11:23:41.582Z,22.30
2022-08-20T11:26:11.511Z,22.40
2022-08-20T11:28:40.155Z,22.40
2022-08-20T11:31:08.688Z,22.40
2022-08-20T11:34:01.900Z,22.50
2022-08-20T11:37:01.088Z,22.60
2022-08-20T11:43:59.484Z,22.60
2022-08-20T11:54:10.186Z,22.30
2022-08-20T11:56:46.089Z,22.20
2022-08-20T11:59:44.174Z,22.20
2022-08-20T12:09:24.695Z,22.20
2022-08-20T12:12:35.889Z,22.40
2022-08-20T12:15:24.952Z,22.60
2022-08-20T12:17:55.973Z,22.70
2022-08-20T12:20:32.454Z,22.70
2022-08-20T12:23:21.495Z,22.80
2022-08-20T15:01:14.503Z,24.30
2022-08-20T15:06:55.885Z,24.30
2022-08-20T15:17:55.170Z,23.70
2022-08-20T15:21:44.992Z,23.40
2022-08-20T15:24:21.832Z,23.10
2022-08-20T15:26:59.514Z,23.10
2022-08-20T15:29:28.319Z,23.10
2022-08-20T15:36:13.114Z,23.10
2022-08-20T15:42:10.817Z,23.10
2022-08-20T15:45:00.393Z,23.10
2022-08-20T15:47:55.478Z,23.10
2022-08-20T16:10:36.820Z,22.70
2022-08-20T16:16:05.522Z,22.50
2022-08-20T16:19:40.791Z,22.50
2022-08-20T16:25:09.203Z,22.50
2022-08-20T16:28:12.711Z,22.40
2022-08-20T16:34:20.163Z,22.30
2022-08-20T16:37:29.182Z,22.40
2022-08-20T16:40:49.894Z,22.40
2022-08-20T16:44:02.310Z,22.40
2022-08-20T17:01:10.596Z,22.20
2022-08-20T17:07:08.845Z,22.20
2022-08-20T17:42:29.373Z,21.80
2022-08-20T18:01:47.583Z,21.80
2022-08-20T18:04:17.357Z,21.60
2022-08-20T18:06:52.409Z,21.50
2022-08-20T18:09:30.728Z,21.50
2022-08-20T18:12:04.579Z,21.50
2022-08-20T18:14:47.217Z,21.50
2022-08-20T18:17:41.870Z,21.40
2022-08-20T18:20:25.920Z,21.40
2022-08-20T18:22:59.428Z,21.40
2022-08-20T18:25:33.604Z,21.40
2022-08-20T18:28:08.205Z,21.40
2022-08-20T18:30:36.638Z,21.30
2022-08-20T18:33:09.092Z,21.30
2022-08-20T18:35:39.369Z,21.30
2022-08-20T18:38:27.150Z,21.20
2022-08-20T18:41:05.691Z,21.20
2022-08-20T18:43:33.696Z,21.20
2022-08-20T18:46:11.704Z,21.20
2022-08-20T18:48:52.245Z,21.20
2022-08-20T18:51:25.581Z,21.10
2022-08-20T18:53:53.520Z,21.10
2022-08-20T18:56:32.587Z,21.10
2022-08-20T18:59:03.299Z,21.10
2022-08-20T19:01:35.206Z,21.00
2022-08-20T19:04:17.446Z,21.00
2022-08-20T19:06:52.410Z,21.00
2022-08-20T19:09:39.411Z,20.90
2022-08-20T19:12:24.236Z,20.90
2022-08-20T19:15:07.495Z,20.90
2022-08-20T19:17:56.291Z,20.90
2022-08-20T19:20:29.296Z,20.90
2022-08-20T19:23:04.962Z,20.80
2022-08-20T19:25:35.838Z,20.80
2022-08-20T19:28:08.180Z,20.80
2022-08-20T19:30:38.380Z,20.80
2022-08-20T19:33:07.881Z,20.70
2022-08-20T19:35:37.533Z,20.70
2022-08-20T19:38:08.229Z,20.70
2022-08-20T19:40:40.135Z,20.70
2022-08-20T19:43:15.683Z,20.60
2022-08-20T19:45:47.969Z,20.60
2022-08-20T19:48:29.953Z,20.50
2022-08-20T19:51:07.207Z,20.40
2022-08-20T19:53:38.032Z,20.40
2022-08-20T19:56:08.379Z,20.30
2022-08-20T19:58:37.317Z,20.30
2022-08-20T20:01:12.601Z,20.20
2022-08-20T20:03:40.586Z,20.20
2022-08-20T20:06:17.270Z,20.10
2022-08-20T20:08:51.071Z,20.10
2022-08-20T20:11:21.868Z,20.00
2022-08-20T20:13:49.932Z,20.00
2022-08-20T20:16:20.923Z,20.00
2022-08-20T20:19:09.078Z,20.00
2022-08-20T20:21:42.463Z,19.90
2022-08-20T20:24:11.628Z,19.90
2022-08-20T20:26:42.382Z,19.80
2022-08-20T20:29:13.043Z,19.80
2022-08-20T20:31:52.024Z,19.80
2022-08-20T20:34:27.573Z,19.80
2022-08-20T20:37:09.988Z,19.80
2022-08-20T20:39:39.965Z,19.80
2022-08-20T20:42:10.364Z,19.70
2022-08-20T20:44:40.279Z,19.70
2022-08-20T20:47:18.700Z,19.60
2022-08-20T20:49:51.373Z,19.50
2022-08-20T20:52:23.069Z,19.50
2022-08-20T20:54:51.771Z,19.40
2022-08-20T20:57:38.024Z,19.30
2022-08-20T21:00:09.413Z,19.30
2022-08-20T21:02:37.518Z,19.20
2022-08-20T21:05:06.231Z,19.10
2022-08-20T21:07:35.742Z,19.10
2022-08-20T21:10:04.214Z,19.00
2022-08-20T21:12:32.108Z,19.00
2022-08-20T21:15:00.048Z,19.00
2022-08-20T21:17:27.980Z,18.90
2022-08-20T21:19:56.019Z,18.90
2022-08-20T21:22:23.919Z,18.80
2022-08-20T21:24:53.332Z,18.70
2022-08-20T21:27:23.642Z,18.70
2022-08-20T21:29:52.080Z,18.60
2022-08-20T21:32:20.255Z,18.60
2022-08-20T21:34:48.553Z,18.60
2022-08-20T21:37:17.233Z,18.50
2022-08-20T21:39:45.430Z,18.50
2022-08-20T21:42:28.738Z,18.50
2022-08-20T21:44:57.936Z,18.40
2022-08-20T21:47:26.520Z,18.40
2022-08-20T21:49:55.055Z,18.40
2022-08-20T21:52:23.098Z,18.40
2022-08-20T21:54:50.993Z,18.40
2022-08-20T21:57:23.112Z,18.30
2022-08-20T21:59:51.222Z,18.40
2022-08-20T22:02:19.600Z,18.30
2022-08-20T22:04:47.561Z,18.30
2022-08-20T22:07:16.504Z,18.30
2022-08-20T22:09:44.500Z,18.30
2022-08-20T22:12:17.334Z,18.30
2022-08-20T22:14:48.139Z,18.30
2022-08-20T22:17:16.571Z,18.20
2022-08-20T22:19:44.788Z,18.20
2022-08-20T22:22:14.655Z,18.20
2022-08-20T22:24:43.129Z,18.10
2022-08-20T22:27:11.199Z,18.10
2022-08-20T22:29:39.790Z,18.10
2022-08-20T22:32:09.942Z,18.10
2022-08-20T22:34:40.162Z,18.10
2022-08-20T22:37:08.652Z,18.10
2022-08-20T22:39:36.668Z,18.00
2022-08-20T22:42:05.001Z,18.00
2022-08-20T22:44:33.378Z,18.00
2022-08-20T22:47:06.859Z,18.00
2022-08-20T22:49:41.513Z,17.90
2022-08-20T22:52:11.574Z,17.90
2022-08-20T22:54:39.671Z,17.80
2022-08-20T22:57:12.777Z,17.70
2022-08-20T22:59:47.096Z,17.70
2022-08-20T23:02:22.972Z,17.70
2022-08-20T23:04:52.591Z,17.60
2022-08-20T23:07:20.766Z,17.60
2022-08-20T23:09:48.729Z,17.60
2022-08-20T23:12:16.736Z,17.50
2022-08-20T23:14:44.747Z,17.50
2022-08-20T23:17:14.991Z,17.50
2022-08-20T23:19:45.319Z,17.40
2022-08-20T23:22:14.882Z,17.40
2022-08-20T23:24:42.854Z,17.40
2022-08-20T23:27:15.083Z,17.40
2022-08-20T23:29:43.100Z,17.40
2022-08-20T23:32:11.089Z,17.30
2022-08-20T23:34:39.072Z,17.30
2022-08-20T23:37:08.655Z,17.20
2022-08-20T23:39:38.079Z,17.20
2022-08-20T23:42:06.196Z,17.20
2022-08-20T23:44:34.163Z,17.20
2022-08-20T23:47:03.526Z,17.20
2022-08-20T23:49:32.788Z,17.10
2022-08-20T23:52:01.238Z,17.10
2022-08-20T23:54:30.905Z,17.00
2022-08-20T23:57:00.335Z,17.00
2022-08-20T23:59:28.302Z,17.00
